Time;durP1;ratioP1;P1;durP2;ratioP2;P2;SDS_P1;SDS_P2;PMS_P1;PMS_P2;Temp;Humidity;BMP_temperature;BMP_pressure;BME280_temperature;BME280_humidity;BME280_pressure;Samples;Min_cycle;Max_cycle;Signal;HPM_P1;HPM_P2
2023/12/03 00:00:12;;;;;;;2.22;2.03;;;-3.30;99.90;;;;;;4971814;28;20293;-84
2023/12/03 00:02:42;;;;;;;1.45;1.35;;;-3.30;99.90;;;;;;4985672;28;20257;-83
2023/12/03 00:05:11;;;;;;;0.80;0.80;;;-3.30;99.90;;;;;;4964079;28;20342;-83
2023/12/03 00:07:38;;;;;;;0.93;0.93;;;-3.30;99.90;;;;;;4983792;28;20234;-79
2023/12/03 00:10:06;;;;;;;1.77;1.67;;;-3.30;99.90;;;;;;4984894;28;20207;-81
2023/12/03 00:12:33;;;;;;;2.95;2.53;;;-3.30;99.90;;;;;;4983926;28;20226;-84
2023/12/03 00:15:00;;;;;;;1.35;1.35;;;-3.30;99.90;;;;;;4993686;28;20237;-82
2023/12/03 00:17:27;;;;;;;1.75;1.65;;;-3.30;99.90;;;;;;5012974;28;20204;-82
2023/12/03 00:19:54;;;;;;;3.08;2.97;;;-3.20;99.90;;;;;;4986039;28;20302;-81
2023/12/03 00:22:22;;;;;;;2.35;2.25;;;-3.20;99.90;;;;;;4982296;28;20211;-83
2023/12/03 00:24:49;;;;;;;3.38;2.72;;;-3.30;99.90;;;;;;4987908;28;20242;-85
2023/12/03 00:27:19;;;;;;;4.82;1.50;;;-3.20;99.90;;;;;;4986805;28;20231;-82
2023/12/03 00:29:46;;;;;;;3.80;2.83;;;-3.20;99.90;;;;;;4981885;28;20207;-85
2023/12/03 00:32:13;;;;;;;1.48;0.93;;;-3.20;99.90;;;;;;4991737;28;20706;-84
2023/12/03 00:34:40;;;;;;;1.02;1.02;;;-3.20;99.90;;;;;;4984155;28;20207;-83
2023/12/03 00:37:07;;;;;;;0.40;0.40;;;-3.20;99.90;;;;;;4982334;28;20220;-83
2023/12/03 00:39:34;;;;;;;0.90;0.90;;;-3.20;99.90;;;;;;4981948;28;20533;-81
2023/12/03 00:42:01;;;;;;;0.95;0.95;;;-3.20;99.90;;;;;;4993150;28;20380;-83
2023/12/03 00:44:28;;;;;;;2.97;2.78;;;-3.10;99.90;;;;;;4990064;28;20350;-81
2023/12/03 00:46:56;;;;;;;0.73;0.73;;;-3.20;99.90;;;;;;4984387;28;20211;-82
2023/12/03 00:49:23;;;;;;;3.72;3.10;;;-3.20;99.90;;;;;;4972192;28;20430;-82
2023/12/03 00:51:50;;;;;;;1.45;1.38;;;-3.10;99.90;;;;;;4988909;28;20238;-80
2023/12/03 00:54:17;;;;;;;1.55;1.48;;;-3.10;99.90;;;;;;4993262;28;20221;-83
2023/12/03 00:56:45;;;;;;;1.40;1.40;;;-3.20;99.90;;;;;;4987354;28;20227;-82
2023/12/03 00:59:12;;;;;;;2.55;1.10;;;-3.20;99.90;;;;;;4966991;28;20245;-83
2023/12/03 01:01:39;;;;;;;2.42;2.15;;;-3.20;99.90;;;;;;4990234;28;20281;-79
2023/12/03 01:04:06;;;;;;;0.50;0.50;;;-3.20;99.90;;;;;;4988074;28;20207;-84
2023/12/03 01:06:34;;;;;;;1.88;1.77;;;-3.10;99.90;;;;;;4992003;28;20407;-79
2023/12/03 01:09:01;;;;;;;0.40;0.40;;;-3.10;99.90;;;;;;4983929;28;20230;-81
2023/12/03 01:11:28;;;;;;;2.80;2.17;;;-3.10;99.90;;;;;;4985153;28;20237;-85
2023/12/03 01:14:03;;;;;;;1.23;1.23;;;-3.10;99.90;;;;;;4979748;28;20285;-82
2023/12/03 01:16:31;;;;;;;1.67;1.58;;;-3.10;99.90;;;;;;4980176;28;20400;-80
2023/12/03 01:18:58;;;;;;;1.25;1.10;;;-3.10;99.90;;;;;;4984043;28;20234;-83
2023/12/03 01:21:25;;;;;;;0.60;0.60;;;-3.10;99.90;;;;;;4996757;28;20206;-79
2023/12/03 01:23:52;;;;;;;0.50;0.50;;;-3.10;99.90;;;;;;4992097;28;20214;-84
2023/12/03 01:26:20;;;;;;;2.30;2.20;;;-3.10;99.90;;;;;;4988066;28;20253;-82
2023/12/03 01:28:46;;;;;;;2.42;1.33;;;-3.10;99.90;;;;;;4986490;28;20274;-81
2023/12/03 01:31:14;;;;;;;4.47;1.63;;;-3.00;99.90;;;;;;5000012;28;20246;-81
2023/12/03 01:33:41;;;;;;;1.40;0.93;;;-3.00;99.90;;;;;;4988222;28;20277;-80
2023/12/03 01:36:08;;;;;;;2.75;2.65;;;-3.00;99.90;;;;;;4981761;28;20818;-81
2023/12/03 01:38:36;;;;;;;2.25;2.08;;;-3.00;99.90;;;;;;4979398;28;20224;-82
2023/12/03 01:41:03;;;;;;;6.07;1.85;;;-3.00;99.90;;;;;;4965086;28;20238;-81
2023/12/03 01:43:30;;;;;;;1.98;1.48;;;-3.00;99.90;;;;;;4978933;28;20217;-81
2023/12/03 01:45:57;;;;;;;1.30;1.30;;;-3.00;99.90;;;;;;4974920;28;20683;-82
2023/12/03 01:48:25;;;;;;;4.53;4.10;;;-3.00;99.90;;;;;;4972566;28;20594;-82
2023/12/03 01:50:54;;;;;;;1.13;1.13;;;-3.00;99.90;;;;;;4990415;28;20727;-84
2023/12/03 01:53:22;;;;;;;3.85;2.17;;;-3.00;99.90;;;;;;4971444;28;20233;-83
2023/12/03 01:55:49;;;;;;;1.83;1.73;;;-3.00;99.90;;;;;;4979027;28;20217;-82
2023/12/03 01:58:16;;;;;;;1.20;1.20;;;-3.00;99.90;;;;;;4990890;28;20229;-84
2023/12/03 02:00:43;;;;;;;0.60;0.60;;;-2.90;99.90;;;;;;4977797;28;20199;-81
2023/12/03 02:03:10;;;;;;;1.48;1.48;;;-2.90;99.90;;;;;;4981778;28;20222;-80
2023/12/03 02:05:38;;;;;;;3.72;2.33;;;-2.90;99.90;;;;;;4979323;28;20253;-80
2023/12/03 02:08:05;;;;;;;1.65;1.60;;;-2.90;99.90;;;;;;4986232;28;20234;-83
2023/12/03 02:10:32;;;;;;;0.52;0.52;;;-2.90;99.90;;;;;;4978814;28;20274;-81
2023/12/03 02:12:59;;;;;;;1.63;1.15;;;-2.90;99.90;;;;;;4982272;28;20211;-83
2023/12/03 02:15:26;;;;;;;3.75;2.42;;;-3.00;99.90;;;;;;4985516;28;20656;-80
2023/12/03 02:17:53;;;;;;;0.77;0.77;;;-2.90;99.90;;;;;;4969943;28;20263;-79
2023/12/03 02:20:21;;;;;;;2.00;1.90;;;-2.90;99.90;;;;;;4989999;28;20236;-84
2023/12/03 02:23:01;;;;;;;3.53;2.40;;;-2.90;99.90;;;;;;4989373;28;20305;-83
2023/12/03 02:25:28;;;;;;;3.08;2.72;;;-2.90;99.90;;;;;;4984100;28;20253;-84
2023/12/03 02:27:55;;;;;;;3.35;3.15;;;-2.90;99.90;;;;;;4970578;28;20617;-84
2023/12/03 02:30:22;;;;;;;3.97;2.30;;;-2.90;99.90;;;;;;4988428;28;20519;-83
2023/12/03 02:32:49;;;;;;;2.05;1.95;;;-2.90;99.90;;;;;;4973159;28;20210;-81
2023/12/03 02:35:16;;;;;;;0.60;0.60;;;-2.90;99.90;;;;;;4993509;28;20206;-83
2023/12/03 02:37:44;;;;;;;2.72;2.53;;;-2.90;99.90;;;;;;4991778;28;20274;-81
2023/12/03 02:40:11;;;;;;;2.65;2.15;;;-2.90;99.90;;;;;;4985466;28;20211;-80
2023/12/03 02:42:38;;;;;;;5.00;4.65;;;-2.80;99.90;;;;;;5002212;28;20231;-82
2023/12/03 02:45:07;;;;;;;2.88;2.30;;;-2.90;99.90;;;;;;4995867;28;20199;-83
2023/12/03 02:47:34;;;;;;;2.88;2.72;;;-2.80;99.90;;;;;;4987671;28;20221;-82
2023/12/03 02:50:02;;;;;;;2.95;2.67;;;-2.80;99.90;;;;;;4990940;28;20230;-84
2023/12/03 02:52:30;;;;;;;2.03;1.92;;;-2.90;99.90;;;;;;4995069;28;20238;-82
2023/12/03 02:54:57;;;;;;;2.35;2.25;;;-2.90;99.90;;;;;;4993755;28;20278;-83
2023/12/03 02:57:24;;;;;;;4.07;3.67;;;-2.70;99.90;;;;;;4990710;28;20230;-81
2023/12/03 02:59:51;;;;;;;2.70;2.60;;;-2.90;99.90;;;;;;4987814;28;20225;-82
2023/12/03 03:02:18;;;;;;;2.85;2.75;;;-2.80;99.90;;;;;;4988412;28;20290;-84
2023/12/03 03:04:46;;;;;;;1.20;1.20;;;-2.90;99.90;;;;;;4997624;28;20292;-86
2023/12/03 03:07:13;;;;;;;2.10;2.00;;;-2.80;99.90;;;;;;4996522;28;20462;-83
2023/12/03 03:09:40;;;;;;;4.30;3.90;;;-2.80;99.90;;;;;;4989694;28;20258;-83
2023/12/03 03:12:07;;;;;;;2.70;2.60;;;-2.80;99.90;;;;;;4989661;28;20395;-80
2023/12/03 03:14:34;;;;;;;2.65;2.53;;;-2.80;99.90;;;;;;4991047;28;20207;-81
2023/12/03 03:17:02;;;;;;;1.48;1.42;;;-2.80;99.90;;;;;;4983850;28;20211;-82
2023/12/03 03:19:28;;;;;;;3.90;3.50;;;-2.80;99.90;;;;;;4984121;28;20217;-83
2023/12/03 03:21:56;;;;;;;1.45;1.35;;;-2.80;99.90;;;;;;4975113;28;20203;-81
2023/12/03 03:24:23;;;;;;;1.20;1.20;;;-2.80;99.90;;;;;;4988024;28;20286;-80
2023/12/03 03:26:50;;;;;;;2.45;2.35;;;-2.80;99.90;;;;;;4993259;28;20195;-82
2023/12/03 03:29:17;;;;;;;2.08;1.90;;;-2.80;99.90;;;;;;4998167;28;20238;-83
2023/12/03 03:31:45;;;;;;;1.55;1.45;;;-2.80;99.90;;;;;;4979240;28;20496;-83
2023/12/03 03:34:11;;;;;;;0.95;0.95;;;-2.80;99.90;;;;;;4987120;28;21463;-85
2023/12/03 03:36:38;;;;;;;2.47;2.38;;;-2.80;99.90;;;;;;4983099;28;20557;-85
2023/12/03 03:39:05;;;;;;;1.20;1.20;;;-2.80;99.90;;;;;;4974467;28;20222;-83
2023/12/03 03:41:33;;;;;;;3.45;3.25;;;-2.70;99.90;;;;;;4981744;28;20211;-82
2023/12/03 03:44:00;;;;;;;1.02;1.02;;;-2.70;99.90;;;;;;4983066;28;20221;-82
2023/12/03 03:46:27;;;;;;;3.47;3.28;;;-2.70;99.90;;;;;;4987456;28;20532;-80
2023/12/03 03:48:54;;;;;;;1.63;1.55;;;-2.70;99.90;;;;;;4989344;28;20258;-83
2023/12/03 03:51:21;;;;;;;3.92;3.53;;;-2.80;99.90;;;;;;4980499;28;20218;-80
2023/12/03 03:53:50;;;;;;;2.00;1.90;;;-2.70;99.90;;;;;;4990021;28;20227;-82
2023/12/03 03:56:17;;;;;;;1.50;1.40;;;-2.70;99.90;;;;;;4994857;28;20237;-81
2023/12/03 03:58:44;;;;;;;5.55;3.45;;;-2.70;99.90;;;;;;4982312;28;20658;-82
2023/12/03 04:01:11;;;;;;;4.97;2.28;;;-2.80;99.90;;;;;;4983170;28;20215;-84
2023/12/03 04:03:38;;;;;;;3.97;3.70;;;-2.70;99.90;;;;;;4994416;28;20266;-83
2023/12/03 04:06:06;;;;;;;2.92;2.72;;;-2.70;99.90;;;;;;4999373;28;20183;-81
2023/12/03 04:08:33;;;;;;;4.75;2.25;;;-2.70;99.90;;;;;;5008831;28;20246;-82
2023/12/03 04:11:04;;;;;;;3.58;2.35;;;-2.70;99.90;;;;;;4996944;28;20199;-83
2023/12/03 04:13:31;;;;;;;1.73;1.63;;;-2.70;99.90;;;;;;4999850;28;20217;-84
2023/12/03 04:15:58;;;;;;;1.85;1.75;;;-2.70;99.90;;;;;;4988982;28;20281;-85
2023/12/03 04:18:27;;;;;;;2.80;2.65;;;-2.70;99.90;;;;;;4993309;28;20282;-82
2023/12/03 04:20:54;;;;;;;1.40;1.40;;;-2.70;99.90;;;;;;4984931;28;20215;-80
2023/12/03 04:23:21;;;;;;;5.28;4.72;;;-2.80;99.90;;;;;;4980049;28;20245;-83
2023/12/03 04:25:49;;;;;;;2.22;2.13;;;-2.70;99.90;;;;;;4995582;28;20233;-84
2023/12/03 04:28:15;;;;;;;3.28;2.83;;;-2.70;99.90;;;;;;4994697;28;20254;-83
2023/12/03 04:30:43;;;;;;;1.85;1.75;;;-2.70;99.90;;;;;;4989691;28;20198;-83
2023/12/03 04:33:10;;;;;;;0.40;0.40;;;-2.70;99.90;;;;;;5001401;28;20190;-85
2023/12/03 04:35:37;;;;;;;1.52;1.42;;;-2.70;99.90;;;;;;4988826;28;20237;-83
2023/12/03 04:38:04;;;;;;;1.50;1.30;;;-2.70;99.90;;;;;;4997779;28;20285;-83
2023/12/03 04:40:31;;;;;;;3.28;3.08;;;-2.60;99.90;;;;;;4984620;28;20234;-84
2023/12/03 04:42:58;;;;;;;3.42;3.22;;;-2.70;99.90;;;;;;4989356;28;20214;-81
2023/12/03 04:45:25;;;;;;;0.60;0.60;;;-2.70;99.90;;;;;;4992032;28;20399;-82
2023/12/03 04:47:52;;;;;;;2.08;1.98;;;-2.70;99.90;;;;;;4982079;28;20210;-85
2023/12/03 04:50:19;;;;;;;3.17;2.90;;;-2.60;99.90;;;;;;4985882;28;20356;-82
2023/12/03 04:52:47;;;;;;;3.00;2.63;;;-2.70;99.90;;;;;;4989412;28;20594;-83
2023/12/03 04:55:14;;;;;;;1.60;1.55;;;-2.70;99.90;;;;;;4986250;28;20199;-83
2023/12/03 04:57:41;;;;;;;1.83;1.73;;;-2.70;99.90;;;;;;4994304;28;20202;-83
2023/12/03 05:00:09;;;;;;;0.60;0.60;;;-2.70;99.90;;;;;;4991937;28;20290;-84
2023/12/03 05:02:36;;;;;;;4.90;3.53;;;-2.70;99.90;;;;;;4986780;28;20195;-85
2023/12/03 05:05:05;;;;;;;2.30;2.13;;;-2.70;99.90;;;;;;4972005;28;20227;-84
2023/12/03 05:07:32;;;;;;;1.15;1.10;;;-2.70;99.90;;;;;;4977002;28;20206;-85
2023/12/03 05:09:59;;;;;;;2.15;2.05;;;-2.60;99.90;;;;;;4996332;28;20245;-81
2023/12/03 05:12:27;;;;;;;4.35;2.55;;;-2.60;99.90;;;;;;4987899;28;20227;-85
2023/12/03 05:14:54;;;;;;;1.58;1.15;;;-2.70;99.90;;;;;;4988829;28;20204;-86
2023/12/03 05:17:21;;;;;;;2.83;2.70;;;-2.70;99.90;;;;;;4993919;28;20274;-82
2023/12/03 05:19:48;;;;;;;1.60;1.50;;;-2.70;99.90;;;;;;4988266;28;20218;-86
2023/12/03 05:22:16;;;;;;;0.98;0.98;;;-2.70;99.90;;;;;;4993372;28;20207;-81
2023/12/03 05:24:43;;;;;;;3.28;3.08;;;-2.70;99.90;;;;;;4967268;28;20214;-83
2023/12/03 05:27:11;;;;;;;2.05;1.95;;;-2.70;99.90;;;;;;4980417;28;20199;-85
2023/12/03 05:29:43;;;;;;;4.97;1.90;;;-2.70;99.90;;;;;;4991006;28;20215;-84
2023/12/03 05:32:10;;;;;;;3.20;2.90;;;-2.60;99.90;;;;;;5007052;28;20210;-82
2023/12/03 05:34:37;;;;;;;1.67;1.65;;;-2.60;99.90;;;;;;5001008;28;20195;-85
2023/12/03 05:37:04;;;;;;;4.40;4.03;;;-2.60;99.90;;;;;;4998364;28;20199;-81
2023/12/03 05:39:31;;;;;;;1.20;1.20;;;-2.70;99.90;;;;;;4981804;28;20246;-86
2023/12/03 05:41:58;;;;;;;1.20;1.17;;;-2.70;99.90;;;;;;4998201;28;20187;-85
2023/12/03 05:44:25;;;;;;;3.63;3.42;;;-2.70;99.90;;;;;;5000289;28;20187;-83
2023/12/03 05:46:52;;;;;;;2.67;2.58;;;-2.70;99.90;;;;;;5005083;28;20254;-82
2023/12/03 05:49:18;;;;;;;3.53;3.22;;;-2.70;99.90;;;;;;5059875;23;20260;-81
2023/12/03 05:51:45;;;;;;;2.05;1.95;;;-2.60;99.90;;;;;;5004474;28;20248;-82
2023/12/03 05:54:12;;;;;;;2.05;1.95;;;-2.60;99.90;;;;;;5040722;28;20285;-85
2023/12/03 05:56:40;;;;;;;5.60;4.00;;;-2.60;99.90;;;;;;5010575;28;20244;-84
2023/12/03 05:59:06;;;;;;;4.40;3.97;;;-2.60;99.90;;;;;;5030697;28;20210;-82
2023/12/03 06:01:34;;;;;;;3.70;2.47;;;-2.70;99.90;;;;;;5025087;28;20566;-86
2023/12/03 06:04:06;;;;;;;0.90;0.90;;;-2.60;99.90;;;;;;5024584;28;20197;-86
2023/12/03 06:06:35;;;;;;;2.92;2.80;;;-2.60;99.90;;;;;;5017623;28;20197;-84
2023/12/03 06:09:05;;;;;;;2.72;2.53;;;-2.60;99.90;;;;;;5033572;28;20229;-87
2023/12/03 06:11:32;;;;;;;2.50;2.30;;;-2.60;99.90;;;;;;5014155;28;20205;-81
2023/12/03 06:13:59;;;;;;;3.83;3.63;;;-2.60;99.90;;;;;;5020558;28;20325;-84
2023/12/03 06:16:26;;;;;;;1.40;1.40;;;-2.60;99.90;;;;;;5028999;28;20209;-84
2023/12/03 06:18:55;;;;;;;3.20;2.22;;;-2.60;99.90;;;;;;5020680;28;20240;-82
2023/12/03 06:21:23;;;;;;;2.58;2.05;;;-2.50;99.90;;;;;;5013466;28;20493;-84
2023/12/03 06:23:50;;;;;;;0.98;0.98;;;-2.50;99.90;;;;;;5023763;28;20297;-83
2023/12/03 06:26:17;;;;;;;2.30;1.30;;;-2.50;99.90;;;;;;5006025;28;20260;-84
2023/12/03 06:28:44;;;;;;;2.97;2.83;;;-2.50;99.90;;;;;;5020055;28;20229;-83
2023/12/03 06:31:11;;;;;;;1.17;1.17;;;-2.50;99.90;;;;;;5023700;28;20273;-83
2023/12/03 06:33:38;;;;;;;3.70;3.50;;;-2.40;99.90;;;;;;5034759;28;20294;-83
2023/12/03 06:36:06;;;;;;;1.35;1.33;;;-2.40;99.90;;;;;;5030273;28;20204;-85
2023/12/03 06:38:33;;;;;;;2.55;1.48;;;-2.40;99.90;;;;;;5025851;28;20268;-82
2023/12/03 06:41:00;;;;;;;6.53;2.38;;;-2.40;99.90;;;;;;5014441;28;20203;-82
2023/12/03 06:43:27;;;;;;;2.25;1.80;;;-2.40;99.90;;;;;;5028933;28;20565;-82
2023/12/03 06:45:54;;;;;;;6.78;5.03;;;-2.40;99.90;;;;;;5032548;28;20515;-82
2023/12/03 06:48:21;;;;;;;3.35;2.17;;;-2.40;99.90;;;;;;5027407;28;20210;-83
2023/12/03 06:50:49;;;;;;;2.60;2.50;;;-2.40;99.90;;;;;;5029407;28;20225;-83
2023/12/03 06:53:16;;;;;;;1.13;1.05;;;-2.40;99.90;;;;;;5028638;28;20232;-85
2023/12/03 06:55:43;;;;;;;3.75;3.55;;;-2.40;99.90;;;;;;5025019;28;20205;-83
2023/12/03 06:58:11;;;;;;;2.78;2.08;;;-2.30;99.90;;;;;;5021513;28;20289;-86
2023/12/03 07:00:38;;;;;;;4.47;3.45;;;-2.30;99.90;;;;;;5025036;28;20198;-84
2023/12/03 07:03:05;;;;;;;2.92;2.40;;;-2.30;99.90;;;;;;5022894;28;20233;-83
2023/12/03 07:05:32;;;;;;;4.55;3.95;;;-2.30;99.90;;;;;;5013791;28;20209;-83
2023/12/03 07:07:59;;;;;;;1.02;1.02;;;-2.30;99.90;;;;;;5026425;28;20281;-81
2023/12/03 07:10:26;;;;;;;2.33;2.13;;;-2.30;99.90;;;;;;5019870;28;20242;-81
2023/12/03 07:12:54;;;;;;;3.67;3.05;;;-2.30;99.90;;;;;;5024875;28;20245;-79
2023/12/03 07:15:20;;;;;;;2.40;2.30;;;-2.30;99.90;;;;;;5021515;28;20248;-84
2023/12/03 07:17:48;;;;;;;2.83;2.55;;;-2.30;99.90;;;;;;5039358;28;20186;-82
2023/12/03 07:20:17;;;;;;;2.28;1.08;;;-2.20;99.90;;;;;;5032596;28;20207;-80
2023/12/03 07:22:44;;;;;;;4.75;1.95;;;-2.20;99.90;;;;;;5031496;28;20277;-80
2023/12/03 07:25:12;;;;;;;1.40;1.30;;;-2.20;99.90;;;;;;5020747;28;20605;-84
2023/12/03 07:27:39;;;;;;;1.95;1.85;;;-2.20;99.90;;;;;;5015559;28;20228;-85
2023/12/03 07:30:07;;;;;;;7.18;1.55;;;-2.20;99.90;;;;;;5006648;28;20232;-84
2023/12/03 07:32:34;;;;;;;1.73;1.65;;;-2.20;99.90;;;;;;5039555;28;20215;-83
2023/12/03 07:35:01;;;;;;;0.95;0.95;;;-2.10;99.90;;;;;;5031793;28;20204;-81
2023/12/03 07:37:29;;;;;;;1.23;1.23;;;-2.10;99.90;;;;;;5043431;28;20200;-81
2023/12/03 07:39:56;;;;;;;4.05;2.78;;;-2.10;99.90;;;;;;5037930;28;20271;-81
2023/12/03 07:42:26;;;;;;;1.63;1.63;;;-2.10;99.90;;;;;;5022561;28;20221;-82
2023/12/03 07:44:53;;;;;;;3.28;2.97;;;-2.10;99.90;;;;;;5028556;28;20202;-83
2023/12/03 07:47:20;;;;;;;3.03;2.10;;;-2.10;99.90;;;;;;5032926;28;20429;-84
2023/12/03 07:49:48;;;;;;;5.13;3.05;;;-2.00;99.90;;;;;;5042150;28;20236;-83
2023/12/03 07:52:14;;;;;;;1.65;1.58;;;-2.00;99.90;;;;;;5034432;28;20277;-81
2023/12/03 07:54:42;;;;;;;4.35;2.92;;;-1.90;99.90;;;;;;5011323;28;20258;-80
2023/12/03 07:57:09;;;;;;;1.25;1.25;;;-1.90;99.90;;;;;;5025226;28;20209;-79
2023/12/03 07:59:36;;;;;;;1.95;1.85;;;-1.80;99.90;;;;;;5022178;28;20209;-83
2023/12/03 08:02:06;;;;;;;1.33;1.33;;;-1.80;99.90;;;;;;5021004;28;20680;-82
2023/12/03 08:04:34;;;;;;;2.15;2.08;;;-1.80;99.90;;;;;;5031038;28;20551;-83
2023/12/03 08:07:01;;;;;;;1.88;1.77;;;-1.80;99.90;;;;;;5032016;28;20202;-83
2023/12/03 08:09:29;;;;;;;1.05;1.05;;;-1.80;99.90;;;;;;5023924;28;20244;-85
2023/12/03 08:11:56;;;;;;;4.80;4.43;;;-1.80;99.90;;;;;;5011933;28;20214;-86
2023/12/03 08:14:22;;;;;;;6.47;1.42;;;-1.70;99.90;;;;;;5027634;28;20208;-85
2023/12/03 08:16:50;;;;;;;2.33;2.20;;;-1.90;99.90;;;;;;5031561;28;20212;-84
2023/12/03 08:19:16;;;;;;;1.25;1.25;;;-2.00;99.90;;;;;;5031270;28;20320;-83
2023/12/03 08:21:44;;;;;;;1.92;1.73;;;-1.80;99.90;;;;;;5009125;28;20220;-84
2023/12/03 08:24:11;;;;;;;1.50;1.50;;;-1.90;99.90;;;;;;5004502;28;20370;-85
2023/12/03 08:26:38;;;;;;;1.83;1.77;;;-1.70;99.90;;;;;;5019226;28;20751;-81
2023/12/03 08:29:05;;;;;;;2.53;2.42;;;-1.80;99.90;;;;;;5035033;28;20309;-84
2023/12/03 08:31:32;;;;;;;5.65;2.78;;;-1.80;99.90;;;;;;5031571;28;20285;-84
2023/12/03 08:33:59;;;;;;;6.30;5.70;;;-1.70;99.90;;;;;;5023296;28;20213;-85
2023/12/03 08:36:30;;;;;;;5.90;2.88;;;-1.80;99.90;;;;;;5026124;28;20198;-84
2023/12/03 08:38:57;;;;;;;2.10;2.00;;;-1.60;99.90;;;;;;5096175;23;20294;-84
2023/12/03 08:43:53;;;;;;;1.35;1.35;;;-1.10;99.90;;;;;;4999922;28;20290;-84
2023/12/03 08:46:20;;;;;;;2.72;2.63;;;-1.00;99.90;;;;;;4999710;28;20304;-84
2023/12/03 08:48:47;;;;;;;1.00;1.00;;;-1.00;99.90;;;;;;5115230;23;20247;-84
2023/12/03 08:51:14;;;;;;;3.67;3.33;;;-1.00;99.90;;;;;;5059394;23;20241;-83
2023/12/03 08:53:41;;;;;;;3.25;2.95;;;-1.00;99.90;;;;;;5476833;23;20198;-85
2023/12/03 08:56:12;;;;;;;2.08;1.98;;;-1.00;99.90;;;;;;4996702;28;20207;-82
2023/12/03 08:58:42;;;;;;;0.90;0.90;;;-1.10;99.90;;;;;;4995970;28;20262;-84
2023/12/03 09:01:09;;;;;;;12.68;2.35;;;-1.10;99.90;;;;;;4996305;28;20241;-83
2023/12/03 09:03:40;;;;;;;1.30;1.30;;;-1.10;99.90;;;;;;4989681;28;20279;-86
2023/12/03 09:06:08;;;;;;;2.83;2.70;;;-0.80;99.90;;;;;;4993839;28;20198;-84
2023/12/03 09:08:35;;;;;;;3.95;3.60;;;-1.00;99.90;;;;;;4983121;28;20249;-84
2023/12/03 09:11:05;;;;;;;3.40;2.45;;;-1.10;99.90;;;;;;4979552;28;20295;-86
2023/12/03 09:13:33;;;;;;;4.00;1.85;;;-1.00;99.90;;;;;;4996128;28;20627;-85
2023/12/03 09:16:00;;;;;;;2.05;1.98;;;-0.90;99.90;;;;;;4968572;28;20237;-87
2023/12/03 09:18:28;;;;;;;1.77;1.67;;;-0.80;99.90;;;;;;4983465;28;20211;-86
2023/12/03 09:20:55;;;;;;;3.03;2.80;;;-0.70;99.90;;;;;;4996102;28;20191;-82
2023/12/03 09:23:22;;;;;;;0.70;0.70;;;-1.00;99.90;;;;;;4979336;28;20215;-85
2023/12/03 09:25:49;;;;;;;1.20;1.20;;;-1.00;99.90;;;;;;5008707;28;20236;-85
2023/12/03 09:28:16;;;;;;;8.13;1.55;;;-1.00;99.90;;;;;;5005825;28;20194;-86
2023/12/03 09:30:43;;;;;;;1.75;1.65;;;-1.10;99.90;;;;;;4984976;28;20230;-84
2023/12/03 09:33:10;;;;;;;1.75;1.25;;;-1.10;99.90;;;;;;4990151;28;20207;-85
2023/12/03 09:35:37;;;;;;;2.00;1.90;;;-1.00;99.90;;;;;;4986230;28;20203;-83
2023/12/03 09:38:04;;;;;;;3.10;2.90;;;-1.10;99.90;;;;;;4985108;28;20282;-81
2023/12/03 09:40:31;;;;;;;1.70;1.60;;;-1.40;99.90;;;;;;4977486;28;20210;-84
2023/12/03 09:43:03;;;;;;;1.35;1.25;;;-1.40;99.90;;;;;;4973469;28;20210;-84
2023/12/03 09:45:31;;;;;;;0.82;0.82;;;-1.50;99.90;;;;;;4986225;28;20215;-81
2023/12/03 09:48:01;;;;;;;1.73;1.73;;;-1.60;99.90;;;;;;4967094;28;20242;-85
2023/12/03 09:50:31;;;;;;;0.70;0.70;;;-1.70;99.90;;;;;;4983085;28;20226;-84
2023/12/03 09:52:59;;;;;;;2.05;1.27;;;-1.60;99.90;;;;;;4980434;28;20202;-83
2023/12/03 09:55:27;;;;;;;6.78;2.85;;;-1.70;99.90;;;;;;4980385;28;20222;-87
2023/12/03 09:57:58;;;;;;;0.85;0.85;;;-1.70;99.90;;;;;;4979767;28;20463;-87
2023/12/03 10:00:25;;;;;;;0.63;0.63;;;-1.70;99.90;;;;;;4964671;28;20283;-85
2023/12/03 10:02:53;;;;;;;4.72;1.73;;;-1.60;99.90;;;;;;4985213;28;20436;-82
2023/12/03 10:05:21;;;;;;;1.65;1.65;;;-1.50;99.90;;;;;;4984240;28;20209;-85
2023/12/03 10:07:49;;;;;;;1.77;1.67;;;-1.60;99.90;;;;;;4985646;28;20409;-81
2023/12/03 10:10:19;;;;;;;1.77;1.67;;;-1.60;99.90;;;;;;4976886;28;20235;-86
2023/12/03 10:12:49;;;;;;;2.78;2.67;;;-1.70;99.90;;;;;;4974065;28;20214;-83
2023/12/03 10:15:16;;;;;;;0.98;0.98;;;-1.70;99.90;;;;;;4986391;28;20206;-84
2023/12/03 10:17:43;;;;;;;2.88;2.78;;;-1.70;99.90;;;;;;4982222;28;20266;-87
2023/12/03 10:20:23;;;;;;;2.05;1.48;;;-1.70;99.90;;;;;;4984248;28;20207;-86
2023/12/03 10:22:53;;;;;;;0.63;0.63;;;-1.70;99.90;;;;;;4984732;28;20495;-86
2023/12/03 10:25:27;;;;;;;1.60;1.60;;;-1.80;99.90;;;;;;4982645;28;20201;-84
2023/12/03 10:27:55;;;;;;;0.85;0.82;;;-1.80;99.90;;;;;;4988456;28;20218;-85
2023/12/03 10:30:24;;;;;;;2.15;1.70;;;-1.80;99.90;;;;;;4993198;28;20253;-88
2023/12/03 10:32:51;;;;;;;1.80;1.70;;;-1.70;99.90;;;;;;4977893;28;20203;-86
2023/12/03 10:35:20;;;;;;;3.40;3.20;;;-1.80;99.90;;;;;;4971542;28;20311;-86
2023/12/03 10:37:48;;;;;;;1.58;1.58;;;-1.90;99.90;;;;;;4986222;28;20199;-85
2023/12/03 10:40:16;;;;;;;2.40;2.30;;;-1.90;99.90;;;;;;4989506;28;20214;-86
2023/12/03 10:42:45;;;;;;;3.25;3.05;;;-1.90;99.90;;;;;;4981742;28;20217;-87
2023/12/03 10:45:13;;;;;;;4.47;3.50;;;-1.90;99.90;;;;;;4987185;28;20306;-84
2023/12/03 10:47:41;;;;;;;7.15;4.50;;;-1.80;99.90;;;;;;4986903;28;20203;-84
2023/12/03 10:50:11;;;;;;;2.58;2.38;;;-1.80;99.90;;;;;;4986574;28;20214;-85
2023/12/03 10:52:40;;;;;;;1.52;1.52;;;-1.70;99.90;;;;;;4996458;28;20277;-85
2023/12/03 10:55:08;;;;;;;2.92;2.72;;;-1.70;99.90;;;;;;4994055;28;20456;-86
2023/12/03 10:57:46;;;;;;;4.90;4.63;;;-1.70;99.90;;;;;;4989133;28;20205;-85
2023/12/03 11:00:19;;;;;;;4.10;3.80;;;-1.60;99.90;;;;;;4997137;28;20202;-83
2023/12/03 11:03:09;;;;;;;5.50;5.13;;;-1.60;99.90;;;;;;4977292;28;20195;-81
2023/12/03 11:05:51;;;;;;;1.45;1.35;;;-1.60;99.90;;;;;;4993093;28;20407;-81
2023/12/03 11:08:21;;;;;;;2.90;2.70;;;-1.50;99.90;;;;;;4986819;28;20203;-82
2023/12/03 11:10:50;;;;;;;6.55;3.95;;;-1.50;99.90;;;;;;4979436;28;20269;-84
2023/12/03 11:13:18;;;;;;;1.25;1.25;;;-1.40;99.90;;;;;;4987898;28;20207;-84
2023/12/03 11:15:52;;;;;;;2.15;2.00;;;-1.50;99.90;;;;;;5000348;28;20207;-87
2023/12/03 11:18:21;;;;;;;3.22;3.03;;;-1.60;99.90;;;;;;4990673;28;20237;-87
2023/12/03 11:20:53;;;;;;;3.83;3.53;;;-1.50;99.90;;;;;;4994886;28;20219;-84
2023/12/03 11:23:38;;;;;;;2.50;2.40;;;-1.40;99.90;;;;;;4980165;28;20207;-85
2023/12/03 11:26:15;;;;;;;2.38;2.28;;;-1.30;99.90;;;;;;4992374;28;20228;-84
2023/12/03 11:28:52;;;;;;;5.05;4.78;;;-1.20;99.90;;;;;;4994010;28;20206;-87
2023/12/03 11:31:24;;;;;;;3.08;2.88;;;-1.10;99.90;;;;;;4985899;28;20235;-84
2023/12/03 11:33:58;;;;;;;0.60;0.60;;;-1.10;99.90;;;;;;5006629;28;20217;-86
2023/12/03 11:36:47;;;;;;;2.67;2.55;;;-1.20;99.90;;;;;;4988071;28;20206;-85
2023/12/03 11:39:20;;;;;;;4.70;4.20;;;-1.20;99.90;;;;;;4981446;28;20238;-87
2023/12/03 11:41:58;;;;;;;7.93;2.17;;;-1.30;99.90;;;;;;4992799;28;20278;-85
2023/12/03 11:44:25;;;;;;;3.80;3.00;;;-1.20;99.90;;;;;;4991114;28;20210;-88
2023/12/03 11:47:07;;;;;;;2.15;2.08;;;-0.90;99.90;;;;;;5000157;28;20217;-86
2023/12/03 11:49:36;;;;;;;1.30;1.25;;;-0.60;99.90;;;;;;4995456;28;20507;-86
2023/12/03 11:52:04;;;;;;;2.65;2.45;;;-0.80;99.90;;;;;;4986948;28;20246;-81
2023/12/03 11:54:47;;;;;;;2.20;2.10;;;-0.80;99.90;;;;;;4992254;28;20214;-85
2023/12/03 11:57:15;;;;;;;2.08;2.00;;;-0.80;99.90;;;;;;4967267;28;20206;-85
2023/12/03 11:59:43;;;;;;;2.80;1.60;;;-0.90;99.90;;;;;;4992284;28;20228;-82
2023/12/03 12:02:12;;;;;;;2.90;2.10;;;-0.90;99.90;;;;;;4994716;28;20210;-82
2023/12/03 12:04:39;;;;;;;3.70;3.50;;;-0.90;99.90;;;;;;4964708;28;20207;-84
2023/12/03 12:07:16;;;;;;;1.15;1.15;;;-0.60;99.90;;;;;;4988014;28;20221;-82
2023/12/03 12:09:46;;;;;;;3.53;1.90;;;-0.80;99.90;;;;;;4987223;28;20207;-85
2023/12/03 12:12:14;;;;;;;1.83;1.73;;;-0.80;99.90;;;;;;4988143;28;20503;-84
2023/12/03 12:14:42;;;;;;;5.47;4.32;;;-0.70;99.90;;;;;;4987966;28;20206;-82
2023/12/03 12:17:09;;;;;;;3.40;3.20;;;-0.80;99.90;;;;;;4992314;28;20207;-83
2023/12/03 12:19:44;;;;;;;3.80;3.58;;;-0.90;99.90;;;;;;4988106;28;20415;-81
2023/12/03 12:22:11;;;;;;;3.10;2.90;;;-0.90;99.90;;;;;;4986067;28;20218;-83
2023/12/03 12:24:38;;;;;;;2.53;2.42;;;-1.00;99.90;;;;;;4987153;28;20222;-82
2023/12/03 12:27:05;;;;;;;0.93;0.93;;;-0.90;99.90;;;;;;4991307;28;20598;-84
2023/12/03 12:29:34;;;;;;;3.40;3.20;;;-0.90;99.90;;;;;;4971597;28;20239;-86
2023/12/03 12:32:01;;;;;;;5.75;5.38;;;-0.80;99.90;;;;;;4996280;28;20241;-84
2023/12/03 12:34:29;;;;;;;2.78;2.67;;;-0.80;99.90;;;;;;4987123;28;20221;-86
2023/12/03 12:37:04;;;;;;;1.50;1.50;;;-0.80;99.90;;;;;;4999900;28;20520;-87
2023/12/03 12:39:35;;;;;;;2.05;1.95;;;-0.70;99.90;;;;;;4973270;28;20219;-85
2023/12/03 12:42:04;;;;;;;2.08;1.95;;;-0.70;99.90;;;;;;4995369;28;20195;-84
2023/12/03 12:44:39;;;;;;;2.90;2.67;;;-0.60;99.90;;;;;;4989412;28;20207;-86
2023/12/03 12:47:18;;;;;;;8.85;2.63;;;-0.60;99.90;;;;;;4993838;28;20483;-84
2023/12/03 12:49:55;;;;;;;1.48;1.45;;;-0.50;99.90;;;;;;4985978;28;20207;-88
2023/12/03 12:52:24;;;;;;;2.58;2.45;;;-0.40;99.90;;;;;;4985034;28;20209;-84
2023/12/03 12:54:57;;;;;;;2.65;2.45;;;-0.50;99.90;;;;;;4965387;28;20246;-84